createdAt,value
2022-11-27T00:01:37.896Z,100669.47
2022-11-27T00:04:08.924Z,100675.44
2022-11-27T00:06:39.951Z,100672.56
2022-11-27T00:09:16.266Z,100668.81
2022-11-27T00:11:45.016Z,100679.09
2022-11-27T00:14:15.316Z,100671.72
2022-11-27T00:16:43.380Z,100676.16
2022-11-27T00:19:11.858Z,100680.06
2022-11-27T00:21:39.632Z,100679.84
2022-11-27T00:24:08.887Z,100686.34
2022-11-27T00:26:38.364Z,100682.94
2022-11-27T00:29:09.627Z,100682.91
2022-11-27T00:31:38.272Z,100686.50
2022-11-27T00:34:08.705Z,100693.28
2022-11-27T00:36:37.789Z,100688.56
2022-11-27T00:39:05.972Z,100689.34
2022-11-27T00:41:34.336Z,100689.28
2022-11-27T00:44:01.921Z,100691.88
2022-11-27T00:46:33.529Z,100694.06
2022-11-27T00:49:04.223Z,100687.06
2022-11-27T00:51:32.103Z,100686.84
2022-11-27T00:53:59.986Z,100689.13
2022-11-27T00:56:31.500Z,100688.34
2022-11-27T00:58:59.308Z,100695.34
2022-11-27T01:01:36.482Z,100701.09
2022-11-27T01:04:06.874Z,100701.66
2022-11-27T01:06:34.804Z,100696.78
2022-11-27T01:09:03.216Z,100688.94
2022-11-27T01:11:34.588Z,100687.63
2022-11-27T01:14:07.067Z,100689.97
2022-11-27T01:16:36.423Z,100689.97
2022-11-27T01:19:06.376Z,100686.16
2022-11-27T01:21:35.982Z,100686.94
2022-11-27T01:24:05.427Z,100682.41
2022-11-27T01:26:32.981Z,100678.69
2022-11-27T01:29:00.694Z,100683.06
2022-11-27T01:31:32.508Z,100689.03
2022-11-27T01:34:11.726Z,100688.50
2022-11-27T01:36:39.282Z,100686.88
2022-11-27T01:39:06.877Z,100691.03
2022-11-27T01:41:39.895Z,100692.84
2022-11-27T01:44:25.533Z,100692.78
2022-11-27T01:47:00.084Z,100698.38
2022-11-27T01:49:46.393Z,100694.25
2022-11-27T01:52:30.158Z,100693.78
2022-11-27T01:55:21.625Z,100693.50
2022-11-27T01:58:14.437Z,100684.88
2022-11-27T02:00:42.483Z,100676.84
2022-11-27T02:03:10.448Z,100675.53
2022-11-27T02:05:38.157Z,100680.72
2022-11-27T02:08:14.584Z,100679.16
2022-11-27T02:12:03.127Z,100681.25
2022-11-27T02:14:35.601Z,100671.09
2022-11-27T02:17:20.602Z,100678.66
2022-11-27T02:20:20.944Z,100675.03
2022-11-27T02:23:40.641Z,100675.72
2022-11-27T02:26:48.449Z,100680.22
2022-11-27T02:29:22.902Z,100673.66
2022-11-27T02:32:10.306Z,100680.16
2022-11-27T02:34:50.745Z,100682.28
2022-11-27T02:37:44.069Z,100681.78
2022-11-27T02:40:26.149Z,100680.44
2022-11-27T02:43:03.629Z,100684.88
2022-11-27T02:45:45.448Z,100687.97
2022-11-27T02:48:21.376Z,100686.94
2022-11-27T02:50:52.763Z,100689.63
2022-11-27T02:53:29.687Z,100693.00
2022-11-27T02:55:59.120Z,100686.19
2022-11-27T02:58:29.977Z,100685.75
2022-11-27T03:00:58.795Z,100691.78
2022-11-27T03:03:34.685Z,100697.28
2022-11-27T03:06:09.597Z,100699.06
2022-11-27T03:09:10.484Z,100700.84
2022-11-27T03:11:38.525Z,100691.72
2022-11-27T03:14:09.585Z,100686.78
2022-11-27T03:16:54.788Z,100690.22
2022-11-27T03:19:37.624Z,100698.81
2022-11-27T03:22:05.677Z,100695.31
2022-11-27T03:24:36.196Z,100696.56
2022-11-27T03:27:05.324Z,100693.72
2022-11-27T03:29:54.922Z,100698.97
2022-11-27T03:32:22.793Z,100694.84
2022-11-27T03:34:50.981Z,100697.69
2022-11-27T03:37:18.649Z,100698.75
2022-11-27T03:39:49.381Z,100695.63
2022-11-27T03:42:33.658Z,100701.59
2022-11-27T03:45:22.279Z,100701.03
2022-11-27T03:48:04.598Z,100702.81
2022-11-27T03:51:05.516Z,100705.31
2022-11-27T03:54:02.525Z,100704.91
2022-11-27T03:57:01.558Z,100697.34
2022-11-27T03:59:38.986Z,100694.28
2022-11-27T04:02:06.537Z,100698.47
2022-11-27T04:04:34.141Z,100696.38
2022-11-27T04:07:01.687Z,100690.81
2022-11-27T04:09:29.177Z,100696.38
2022-11-27T04:11:56.681Z,100692.25
2022-11-27T04:14:24.195Z,100687.34
2022-11-27T04:16:51.762Z,100673.81
2022-11-27T04:19:19.234Z,100677.22
2022-11-27T04:21:46.739Z,100682.78
2022-11-27T04:24:14.352Z,100681.34
2022-11-27T04:26:41.950Z,100688.03
2022-11-27T04:29:09.511Z,100681.06
2022-11-27T04:31:37.058Z,100684.31
2022-11-27T04:34:04.578Z,100678.91
2022-11-27T04:36:37.597Z,100678.69
2022-11-27T04:39:06.716Z,100677.94
2022-11-27T04:41:34.282Z,100687.56
2022-11-27T04:44:02.060Z,100683.13
2022-11-27T04:46:29.672Z,100691.88
2022-11-27T04:48:57.256Z,100698.06
2022-11-27T04:51:24.888Z,100683.72
2022-11-27T04:53:52.348Z,100688.56
2022-11-27T04:56:19.841Z,100691.53
2022-11-27T04:58:47.369Z,100696.66
2022-11-27T05:01:15.934Z,100695.56
2022-11-27T05:03:43.440Z,100699.94
2022-11-27T05:06:10.969Z,100701.03
2022-11-27T05:08:38.413Z,100701.47
2022-11-27T05:11:13.172Z,100686.00
2022-11-27T05:13:41.652Z,100689.19
2022-11-27T05:16:09.578Z,100695.09
2022-11-27T05:18:37.468Z,100707.41
2022-11-27T05:21:11.989Z,100710.00
2022-11-27T05:23:39.575Z,100703.09
2022-11-27T05:26:07.603Z,100698.34
2022-11-27T05:28:35.145Z,100696.97
2022-11-27T05:31:02.720Z,100708.13
2022-11-27T05:33:30.248Z,100722.44
2022-11-27T05:35:57.693Z,100723.00
2022-11-27T05:38:25.245Z,100724.41
2022-11-27T05:40:52.744Z,100734.31
2022-11-27T05:43:20.263Z,100741.44
2022-11-27T05:45:48.144Z,100739.31
2022-11-27T05:48:15.605Z,100732.88
2022-11-27T05:50:43.058Z,100734.31
2022-11-27T05:53:10.561Z,100728.81
2022-11-27T05:55:38.010Z,100731.56
2022-11-27T05:58:05.540Z,100737.72
2022-11-27T06:00:33.069Z,100737.00
2022-11-27T06:03:00.707Z,100744.09
2022-11-27T06:05:28.322Z,100753.72
2022-11-27T06:07:55.939Z,100754.88
2022-11-27T06:10:23.966Z,100755.41
2022-11-27T06:12:51.414Z,100749.28
2022-11-27T06:15:18.922Z,100752.66
2022-11-27T06:17:46.339Z,100751.72
2022-11-27T06:20:14.055Z,100751.88
2022-11-27T06:22:41.519Z,100753.41
2022-11-27T06:25:09.494Z,100757.59
2022-11-27T06:27:37.466Z,100756.72
2022-11-27T06:30:06.126Z,100767.47
2022-11-27T06:32:33.602Z,100767.03
2022-11-27T06:35:01.184Z,100760.66
2022-11-27T06:37:28.776Z,100752.19
2022-11-27T06:39:56.189Z,100755.84
2022-11-27T06:42:23.799Z,100755.56
2022-11-27T06:44:51.284Z,100763.19
2022-11-27T06:47:18.770Z,100757.16
2022-11-27T06:49:46.230Z,100761.84
2022-11-27T06:52:13.788Z,100761.25
2022-11-27T06:54:41.406Z,100764.03
2022-11-27T06:57:09.149Z,100766.03
2022-11-27T06:59:36.566Z,100762.31
2022-11-27T07:02:04.316Z,100760.00
2022-11-27T07:04:32.442Z,100760.19
2022-11-27T07:07:00.025Z,100761.41
2022-11-27T07:09:27.536Z,100760.41
2022-11-27T07:11:55.063Z,100753.72
2022-11-27T07:14:22.540Z,100753.63
2022-11-27T07:16:50.055Z,100751.50
2022-11-27T07:19:17.657Z,100748.69
2022-11-27T07:21:47.945Z,100748.41
2022-11-27T07:24:15.540Z,100757.22
2022-11-27T07:26:43.030Z,100764.44
2022-11-27T07:29:10.612Z,100760.16
2022-11-27T07:31:38.269Z,100752.78
2022-11-27T07:34:11.725Z,100757.28
2022-11-27T07:36:43.221Z,100764.09
2022-11-27T07:39:10.733Z,100768.13
2022-11-27T07:41:38.738Z,100765.22
2022-11-27T07:44:06.298Z,100763.47
2022-11-27T07:46:33.905Z,100763.03
2022-11-27T07:49:03.925Z,100765.88
2022-11-27T07:51:31.538Z,100769.84
2022-11-27T07:54:00.776Z,100768.03
2022-11-27T07:56:28.573Z,100767.50
2022-11-27T07:58:58.050Z,100762.53
2022-11-27T08:01:25.843Z,100769.84
2022-11-27T08:03:53.407Z,100759.16
2022-11-27T08:06:24.812Z,100760.47
2022-11-27T08:08:56.010Z,100763.84
2022-11-27T08:11:30.486Z,100760.44
2022-11-27T08:14:06.792Z,100774.06
2022-11-27T08:16:36.444Z,100763.03
2022-11-27T08:19:04.789Z,100766.97
2022-11-27T08:21:35.411Z,100761.72
2022-11-27T08:24:05.159Z,100765.38
2022-11-27T08:26:32.896Z,100765.88
2022-11-27T08:29:01.313Z,100762.75
2022-11-27T08:31:30.052Z,100759.56
2022-11-27T08:33:57.737Z,100758.94
2022-11-27T08:36:28.132Z,100760.81
2022-11-27T08:38:59.321Z,100764.97
2022-11-27T08:41:26.851Z,100756.91
2022-11-27T08:43:55.955Z,100749.75
2022-11-27T08:46:23.513Z,100749.78
2022-11-27T08:48:51.334Z,100748.34
2022-11-27T08:51:19.011Z,100742.25
2022-11-27T08:53:47.830Z,100744.25
2022-11-27T08:56:19.190Z,100751.00
2022-11-27T08:58:50.402Z,100754.31
2022-11-27T09:01:29.677Z,100756.31
2022-11-27T09:03:59.733Z,100748.44
2022-11-27T09:06:31.423Z,100745.84
2022-11-27T09:09:05.231Z,100738.31
2022-11-27T09:11:34.534Z,100732.97
2022-11-27T09:14:04.812Z,100734.75
2022-11-27T09:16:33.127Z,100733.34
2022-11-27T09:19:02.626Z,100726.81
2022-11-27T09:21:31.683Z,100730.09
2022-11-27T09:24:09.843Z,100727.03
2022-11-27T09:26:38.614Z,100728.88
2022-11-27T09:29:06.408Z,100723.97
2022-11-27T09:31:33.980Z,100722.09
2022-11-27T09:34:05.685Z,100720.91
2022-11-27T09:36:33.787Z,100707.50
2022-11-27T09:39:03.585Z,100710.59
2022-11-27T09:41:50.478Z,100699.69
2022-11-27T09:44:47.021Z,100702.19
2022-11-27T09:47:42.492Z,100688.03
2022-11-27T09:50:17.894Z,100692.41
2022-11-27T09:52:55.086Z,100683.25
2022-11-27T09:55:42.632Z,100685.09
2022-11-27T09:58:22.361Z,100673.72
2022-11-27T10:00:49.964Z,100668.94
2022-11-27T10:03:25.736Z,100663.56
2022-11-27T10:06:36.215Z,100663.22
2022-11-27T10:09:19.350Z,100654.59
2022-11-27T10:12:43.530Z,100643.94
2022-11-27T10:15:56.713Z,100635.63
2022-11-27T10:18:40.955Z,100631.00
2022-11-27T10:21:17.765Z,100628.28
2022-11-27T10:24:05.991Z,100614.88
2022-11-27T10:26:57.738Z,100622.88
2022-11-27T10:29:52.273Z,100616.28
2022-11-27T10:35:30.798Z,100613.00
2022-11-27T10:38:26.630Z,100611.03
2022-11-27T10:41:34.301Z,100610.75
2022-11-27T10:44:29.384Z,100600.81
2022-11-27T10:47:06.615Z,100588.28
2022-11-27T10:49:38.452Z,100584.72
2022-11-27T10:52:06.002Z,100581.69
2022-11-27T10:54:39.471Z,100577.97
2022-11-27T10:57:31.587Z,100574.13
2022-11-27T11:00:24.261Z,100575.31
2022-11-27T11:03:07.808Z,100576.63
2022-11-27T11:06:18.540Z,100571.34
2022-11-27T11:08:27.297Z,100572.38
2022-11-27T11:11:04.952Z,100565.88
2022-11-27T11:13:46.082Z,100568.44
2022-11-27T11:16:24.555Z,100556.41
2022-11-27T11:18:55.429Z,100555.84
2022-11-27T11:21:45.134Z,100546.19
2022-11-27T11:24:29.183Z,100550.88
2022-11-27T11:27:07.374Z,100550.69
2022-11-27T11:29:48.848Z,100548.09
2022-11-27T11:32:29.590Z,100545.94
2022-11-27T11:35:26.856Z,100535.84
2022-11-27T11:37:55.737Z,100538.69
2022-11-27T11:40:33.371Z,100535.47
2022-11-27T11:43:10.606Z,100530.78
2022-11-27T11:45:48.900Z,100534.59
2022-11-27T11:48:28.163Z,100529.69
2022-11-27T11:51:08.561Z,100525.00
2022-11-27T11:53:42.975Z,100524.09
2022-11-27T11:56:28.957Z,100526.69
2022-11-27T11:59:52.624Z,100518.47
2022-11-27T12:02:43.115Z,100521.75
2022-11-27T12:05:45.449Z,100514.72
2022-11-27T12:09:37.489Z,100510.88
2022-11-27T12:15:46.375Z,100507.53
2022-11-27T12:21:50.623Z,100493.44
2022-11-27T12:24:48.468Z,100498.41
2022-11-27T12:42:25.844Z,100484.47
2022-11-27T12:45:17.971Z,100482.00
2022-11-27T12:47:52.826Z,100493.56
2022-11-27T12:50:44.610Z,100489.53
2022-11-27T12:53:35.471Z,100488.59
2022-11-27T12:56:24.714Z,100490.41
2022-11-27T12:59:04.172Z,100484.94
2022-11-27T13:01:41.662Z,100476.06
2022-11-27T13:04:37.719Z,100485.63
2022-11-27T13:07:58.088Z,100473.34
2022-11-27T13:10:39.762Z,100477.50
2022-11-27T13:13:14.438Z,100471.03
2022-11-27T13:16:00.073Z,100477.06
2022-11-27T13:18:47.331Z,100476.66
2022-11-27T13:21:28.207Z,100478.78
2022-11-27T13:23:56.345Z,100485.06
2022-11-27T13:27:04.074Z,100477.38
2022-11-27T13:30:05.310Z,100476.53
2022-11-27T13:32:49.337Z,100479.72
2022-11-27T13:35:42.892Z,100478.97
2022-11-27T13:38:26.312Z,100477.28
2022-11-27T13:40:56.419Z,100480.44
2022-11-27T13:43:43.931Z,100483.69
2022-11-27T13:46:29.769Z,100479.91
2022-11-27T13:49:03.446Z,100477.72
2022-11-27T13:51:39.200Z,100484.19
2022-11-27T13:54:28.756Z,100476.09
2022-11-27T13:57:08.921Z,100477.94
2022-11-27T13:59:39.608Z,100469.91
2022-11-27T14:02:10.449Z,100481.19
2022-11-27T14:04:56.575Z,100476.78
2022-11-27T14:07:41.905Z,100473.06
2022-11-27T14:10:27.041Z,100467.72
2022-11-27T14:13:24.844Z,100475.31
2022-11-27T14:16:03.853Z,100479.88
2022-11-27T14:18:33.795Z,100474.19
2022-11-27T14:21:04.265Z,100470.00
2022-11-27T14:23:54.293Z,100469.94
2022-11-27T14:26:27.621Z,100470.66
2022-11-27T14:28:56.960Z,100462.25
2022-11-27T14:31:33.342Z,100477.72
2022-11-27T14:34:16.100Z,100475.75
2022-11-27T14:36:51.232Z,100467.13
2022-11-27T14:39:37.086Z,100464.13
2022-11-27T14:42:18.513Z,100467.28
2022-11-27T14:45:10.211Z,100467.50
2022-11-27T14:47:50.226Z,100468.53
2022-11-27T14:50:25.631Z,100469.13
2022-11-27T14:53:01.194Z,100464.13
2022-11-27T14:55:34.746Z,100456.00
2022-11-27T14:58:08.593Z,100465.28
2022-11-27T15:01:01.413Z,100466.84
2022-11-27T15:03:29.822Z,100458.94
2022-11-27T15:06:10.344Z,100458.69
2022-11-27T15:08:39.116Z,100454.25
2022-11-27T15:11:07.575Z,100461.91
2022-11-27T15:13:39.054Z,100467.13
2022-11-27T15:16:21.300Z,100471.84
2022-11-27T15:19:31.228Z,100464.13
2022-11-27T15:21:59.639Z,100465.72
2022-11-27T15:24:41.578Z,100462.00
2022-11-27T15:27:19.080Z,100472.63
2022-11-27T15:30:06.198Z,100462.53
2022-11-27T15:33:00.817Z,100460.16
2022-11-27T15:36:07.245Z,100466.16
2022-11-27T15:38:41.802Z,100461.16
2022-11-27T15:41:32.934Z,100460.59
2022-11-27T15:44:25.151Z,100467.28
2022-11-27T15:46:56.947Z,100462.03
2022-11-27T15:49:27.190Z,100467.06
2022-11-27T15:52:09.509Z,100459.78
2022-11-27T15:54:44.315Z,100456.34
2022-11-27T15:57:17.278Z,100461.84
2022-11-27T15:59:50.415Z,100453.22
2022-11-27T16:02:20.283Z,100445.84
2022-11-27T16:04:59.700Z,100447.44
2022-11-27T16:07:33.039Z,100455.53
2022-11-27T16:10:06.090Z,100449.25
2022-11-27T16:12:38.036Z,100439.63
2022-11-27T16:15:14.959Z,100437.22
2022-11-27T16:18:04.235Z,100433.59
2022-11-27T16:20:33.315Z,100445.69
2022-11-27T16:23:08.492Z,100441.72
2022-11-27T16:25:41.646Z,100441.16
2022-11-27T16:28:17.054Z,100454.88
2022-11-27T16:30:59.320Z,100445.72
2022-11-27T16:33:30.745Z,100444.41
2022-11-27T16:36:15.100Z,100447.53
2022-11-27T16:38:46.506Z,100452.00
2022-11-27T16:41:20.715Z,100443.63
2022-11-27T16:43:53.478Z,100437.31
2022-11-27T16:46:30.853Z,100432.25
2022-11-27T16:49:04.134Z,100432.53
2022-11-27T16:51:34.702Z,100435.25
2022-11-27T16:54:07.380Z,100435.75
2022-11-27T16:56:40.058Z,100438.97
2022-11-27T16:59:13.617Z,100441.38
2022-11-27T17:01:47.372Z,100446.59
2022-11-27T17:04:23.168Z,100451.84
2022-11-27T17:07:08.058Z,100449.19
2022-11-27T17:09:58.955Z,100442.91
2022-11-27T17:12:28.583Z,100445.78
2022-11-27T17:15:14.971Z,100433.19
2022-11-27T17:17:47.597Z,100435.25
2022-11-27T17:20:17.717Z,100436.59
2022-11-27T17:22:50.917Z,100442.41
2022-11-27T17:25:20.379Z,100436.91
2022-11-27T17:28:10.427Z,100443.47
2022-11-27T17:30:45.170Z,100439.78
2022-11-27T17:33:26.825Z,100432.13
2022-11-27T17:35:59.476Z,100435.34
2022-11-27T17:38:31.523Z,100440.44
2022-11-27T17:41:11.058Z,100438.81
2022-11-27T17:43:42.404Z,100443.00
2022-11-27T17:46:30.823Z,100439.16
2022-11-27T17:49:12.523Z,100442.09
2022-11-27T17:51:43.811Z,100442.44
2022-11-27T17:54:13.514Z,100443.31
2022-11-27T17:56:45.336Z,100446.50
2022-11-27T17:59:25.687Z,100447.22
2022-11-27T18:01:55.976Z,100448.53
2022-11-27T18:04:31.977Z,100445.72
2022-11-27T18:07:02.883Z,100441.50
2022-11-27T18:09:36.264Z,100449.44
2022-11-27T18:12:10.559Z,100451.22
2022-11-27T18:14:42.310Z,100443.28
2022-11-27T18:17:21.308Z,100439.66
2022-11-27T18:19:58.589Z,100443.31
2022-11-27T18:22:36.681Z,100441.31
2022-11-27T18:25:10.709Z,100434.00
2022-11-27T18:27:41.722Z,100440.28
2022-11-27T18:30:12.368Z,100439.22
2022-11-27T18:33:05.615Z,100438.69
2022-11-27T18:36:02.415Z,100444.88
2022-11-27T18:38:36.418Z,100444.41
2022-11-27T18:41:31.291Z,100434.31
2022-11-27T18:46:47.212Z,100446.94
2022-11-27T18:49:23.495Z,100442.50
2022-11-27T18:51:58.188Z,100445.44
2022-11-27T18:54:31.268Z,100439.72
2022-11-27T18:57:03.016Z,100437.41
2022-11-27T18:59:56.157Z,100427.50
2022-11-27T19:02:25.745Z,100436.88
2022-11-27T19:04:57.689Z,100435.91
2022-11-27T19:07:34.756Z,100430.91
2022-11-27T19:10:24.079Z,100440.91
2022-11-27T19:12:54.351Z,100435.41
2022-11-27T19:15:27.473Z,100438.03
2022-11-27T19:17:59.107Z,100430.19
2022-11-27T19:20:33.466Z,100437.97
2022-11-27T19:23:26.124Z,100433.28
2022-11-27T19:25:56.286Z,100430.69
2022-11-27T19:28:47.945Z,100431.00
2022-11-27T19:31:18.699Z,100432.81
2022-11-27T19:34:00.548Z,100434.91
2022-11-27T19:36:32.136Z,100423.44
2022-11-27T19:39:09.675Z,100420.03
2022-11-27T19:44:26.049Z,100417.59
2022-11-27T19:47:04.109Z,100420.03
2022-11-27T19:49:34.040Z,100418.72
2022-11-27T19:52:09.352Z,100410.66
2022-11-27T19:54:41.293Z,100416.13
2022-11-27T19:57:12.803Z,100418.22
2022-11-27T19:59:48.080Z,100418.53
2022-11-27T20:02:16.404Z,100412.47
2022-11-27T20:04:45.696Z,100419.25
2022-11-27T20:07:15.079Z,100421.84
2022-11-27T20:09:45.536Z,100420.22
2022-11-27T20:12:21.434Z,100420.31
2022-11-27T20:15:01.067Z,100421.88
2022-11-27T20:17:31.769Z,100420.31
2022-11-27T20:20:06.893Z,100409.38
2022-11-27T20:22:40.466Z,100411.69
2022-11-27T20:25:20.437Z,100408.81
2022-11-27T20:27:53.109Z,100408.31
2022-11-27T20:30:30.647Z,100412.00
2022-11-27T20:33:07.503Z,100418.00
2022-11-27T20:35:44.486Z,100407.00
2022-11-27T20:41:13.586Z,100403.38
2022-11-27T20:43:48.514Z,100401.31
2022-11-27T20:46:22.279Z,100395.81
2022-11-27T20:48:53.893Z,100391.63
2022-11-27T20:51:34.669Z,100390.63
2022-11-27T20:54:13.159Z,100392.44
2022-11-27T20:56:44.385Z,100394.84
2022-11-27T20:59:16.409Z,100390.16
2022-11-27T21:01:44.409Z,100388.81
2022-11-27T21:04:23.039Z,100389.03
2022-11-27T21:06:53.702Z,100386.53
2022-11-27T21:09:22.628Z,100387.88
2022-11-27T21:11:51.109Z,100385.91
2022-11-27T21:14:21.983Z,100382.84
2022-11-27T21:16:53.046Z,100381.31
2022-11-27T21:19:27.953Z,100371.41
2022-11-27T21:21:58.597Z,100381.91
2022-11-27T21:24:31.227Z,100381.34
2022-11-27T21:26:59.511Z,100385.31
2022-11-27T21:29:31.771Z,100385.84
2022-11-27T21:32:00.559Z,100381.13
2022-11-27T21:34:29.584Z,100376.13
2022-11-27T21:36:58.394Z,100382.66
2022-11-27T21:39:27.561Z,100371.94
2022-11-27T21:41:57.878Z,100372.19
2022-11-27T21:44:27.964Z,100373.75
2022-11-27T21:47:00.731Z,100371.16
2022-11-27T21:49:51.679Z,100365.16
2022-11-27T21:52:23.229Z,100366.22
2022-11-27T21:54:52.882Z,100373.50
2022-11-27T21:57:22.251Z,100370.63
2022-11-27T21:59:51.631Z,100376.91
2022-11-27T22:02:21.794Z,100373.28
2022-11-27T22:04:49.873Z,100365.94
2022-11-27T22:07:21.232Z,100360.47
2022-11-27T22:09:48.931Z,100367.75
2022-11-27T22:12:16.753Z,100371.38
2022-11-27T22:14:46.945Z,100362.25
2022-11-27T22:17:15.146Z,100365.38
2022-11-27T22:19:43.128Z,100369.28
2022-11-27T22:22:11.775Z,100371.94
2022-11-27T22:24:42.025Z,100374.00
2022-11-27T22:27:09.909Z,100362.81
2022-11-27T22:29:37.863Z,100365.66
2022-11-27T22:32:05.935Z,100369.31
2022-11-27T22:34:34.581Z,100362.50
2022-11-27T22:37:03.874Z,100356.50
2022-11-27T22:39:32.283Z,100350.47
2022-11-27T22:42:00.079Z,100354.69
2022-11-27T22:44:27.681Z,100352.59
2022-11-27T22:46:55.422Z,100350.25
2022-11-27T22:49:23.371Z,100354.97
2022-11-27T22:51:52.312Z,100348.72
2022-11-27T22:54:24.894Z,100353.13
2022-11-27T22:56:56.366Z,100347.88
2022-11-27T22:59:33.295Z,100353.53
2022-11-27T23:02:04.161Z,100351.66
2022-11-27T23:04:36.459Z,100353.53
2022-11-27T23:07:05.704Z,100352.44
2022-11-27T23:09:34.905Z,100359.13
2022-11-27T23:12:02.678Z,100353.41
2022-11-27T23:14:30.524Z,100355.19
2022-11-27T23:16:58.303Z,100357.88
2022-11-27T23:19:25.957Z,100357.03
2022-11-27T23:21:53.858Z,100355.00
2022-11-27T23:24:21.451Z,100349.16
2022-11-27T23:26:49.108Z,100361.78
2022-11-27T23:29:16.951Z,100358.16
2022-11-27T23:31:44.666Z,100359.47
2022-11-27T23:34:17.069Z,100362.53
2022-11-27T23:36:45.231Z,100356.03
2022-11-27T23:39:14.246Z,100361.81
2022-11-27T23:41:42.725Z,100350.72
2022-11-27T23:44:11.750Z,100353.41
2022-11-27T23:46:42.083Z,100357.13
2022-11-27T23:49:09.678Z,100345.91
2022-11-27T23:51:38.820Z,100355.84
2022-11-27T23:54:11.438Z,100345.41
2022-11-27T23:56:39.639Z,100348.06
2022-11-27T23:59:07.849Z,100349.34
